Time;durP1;ratioP1;P1;durP2;ratioP2;P2;SDS_P1;SDS_P2;PMS_P1;PMS_P2;Temp;Humidity;BMP_temperature;BMP_pressure;BME280_temperature;BME280_humidity;BME280_pressure;Samples;Min_cycle;Max_cycle;Signal;HPM_P1;HPM_P2
2024/02/01 00:01:17;;;;;;;16.80;9.00;;;;;;;4.84;69.60;99692.10;104986;1269;72201;-28
2024/02/01 00:03:45;;;;;;;14.50;7.70;;;;;;;5.37;67.29;99690.05;105140;1263;74346;-27
2024/02/01 00:06:13;;;;;;;18.90;9.70;;;;;;;5.40;66.71;99685.80;108803;1262;71445;-27
2024/02/01 00:08:41;;;;;;;15.80;9.10;;;;;;;5.28;66.92;99681.23;108798;1260;60182;-27
2024/02/01 00:11:08;;;;;;;17.80;9.50;;;;;;;5.12;67.40;99685.42;108972;1260;60023;-26
2024/02/01 00:13:36;;;;;;;14.10;8.80;;;;;;;4.93;67.99;99679.13;108970;1260;72237;-26
2024/02/01 00:16:04;;;;;;;17.60;10.90;;;;;;;4.76;68.67;99681.98;108896;1260;73198;-26
2024/02/01 00:18:32;;;;;;;16.10;10.00;;;;;;;4.61;69.27;99676.99;108889;1260;72749;-26
2024/02/01 00:20:59;;;;;;;15.40;9.60;;;;;;;4.53;69.48;99675.80;108946;1260;59242;-26
2024/02/01 00:23:27;;;;;;;16.70;9.50;;;;;;;4.39;69.89;99670.98;108948;1260;60096;-27
2024/02/01 00:25:55;;;;;;;13.50;7.60;;;;;;;4.30;70.45;99667.77;108891;1260;72129;-26
2024/02/01 00:28:23;;;;;;;11.70;8.00;;;;;;;4.88;69.66;99660.93;109692;1250;74258;-26
2024/02/01 00:30:50;;;;;;;17.90;11.10;;;;;;;5.52;67.31;99663.37;109740;1251;71332;-27
2024/02/01 00:33:18;;;;;;;13.60;8.00;;;;;;;5.66;66.27;99661.58;109604;1251;60039;-26
2024/02/01 00:35:46;;;;;;;16.50;9.30;;;;;;;5.58;66.27;99654.43;109650;1251;59991;-27
2024/02/01 00:38:14;;;;;;;15.40;9.10;;;;;;;5.31;66.80;99648.91;109646;1255;73020;-27
2024/02/01 00:40:41;;;;;;;17.10;9.60;;;;;;;5.14;67.30;99647.49;109638;1251;74316;-27
2024/02/01 00:43:09;;;;;;;17.20;9.40;;;;;;;4.99;67.82;99639.12;109627;1251;72692;-26
2024/02/01 00:45:37;;;;;;;13.30;9.10;;;;;;;4.83;68.44;99634.88;109607;1254;59242;-26
2024/02/01 00:48:04;;;;;;;16.20;9.20;;;;;;;4.70;68.70;99625.70;109649;1251;58827;-26
2024/02/01 00:50:32;;;;;;;18.20;9.90;;;;;;;4.60;69.01;99621.34;109655;1251;73052;-27
2024/02/01 00:53:00;;;;;;;11.60;7.00;;;;;;;4.49;69.46;99621.85;109611;1250;74299;-26
2024/02/01 00:55:28;;;;;;;15.90;8.20;;;;;;;5.06;68.87;99617.59;109577;1251;72680;-26
2024/02/01 00:57:55;;;;;;;11.70;7.30;;;;;;;5.66;66.92;99613.34;109596;1251;60049;-26
2024/02/01 01:00:23;;;;;;;15.80;8.40;;;;;;;5.75;66.16;99611.67;109627;1251;58894;-27
2024/02/01 01:02:51;;;;;;;15.10;9.00;;;;;;;5.66;66.09;99606.66;109606;1253;71786;-27
2024/02/01 01:05:18;;;;;;;13.80;8.80;;;;;;;5.40;66.38;99606.94;109632;1251;74323;-27
2024/02/01 01:07:46;;;;;;;14.50;7.90;;;;;;;5.20;66.63;99606.75;109570;1251;72315;-27
2024/02/01 01:10:14;;;;;;;13.70;8.40;;;;;;;5.03;66.98;99604.65;109540;1251;58828;-27
2024/02/01 01:12:41;;;;;;;15.00;8.60;;;;;;;4.84;67.61;99609.54;109575;1251;58822;-26
2024/02/01 01:15:09;;;;;;;15.30;8.70;;;;;;;4.61;68.46;99608.90;109619;1251;73024;-26
2024/02/01 01:17:38;;;;;;;12.70;8.30;;;;;;;4.47;69.15;99611.48;109580;1251;74303;-26
2024/02/01 01:20:06;;;;;;;16.00;7.20;;;;;;;4.32;69.77;99609.41;109558;1251;72623;-27
2024/02/01 01:22:34;;;;;;;14.60;8.00;;;;;;;4.86;69.00;99609.63;109574;1251;58768;-26
2024/02/01 01:25:02;;;;;;;17.30;6.80;;;;;;;5.46;66.82;99604.05;109542;1251;60000;-26
2024/02/01 01:27:29;;;;;;;19.90;8.00;;;;;;;5.52;66.19;99599.29;109548;1251;73053;-27
2024/02/01 01:29:57;;;;;;;13.30;7.80;;;;;;;5.45;66.39;99595.16;109612;1251;73031;-27
2024/02/01 01:32:25;;;;;;;14.10;8.50;;;;;;;5.17;66.77;99591.95;109474;1251;72652;-27
2024/02/01 01:34:52;;;;;;;15.80;8.50;;;;;;;4.97;67.18;99590.66;109484;1251;58791;-27
2024/02/01 01:37:20;;;;;;;14.80;8.40;;;;;;;4.76;67.64;99593.94;109535;1251;58740;-27
2024/02/01 01:39:48;;;;;;;15.70;9.90;;;;;;;4.47;68.84;99587.38;109640;1251;73051;-26
2024/02/01 01:42:16;;;;;;;16.40;9.30;;;;;;;4.44;68.72;99582.71;109603;1251;74452;-26
2024/02/01 01:44:43;;;;;;;13.90;8.80;;;;;;;4.32;68.97;99579.52;109479;1251;72610;-27
2024/02/01 01:47:11;;;;;;;14.90;7.90;;;;;;;4.18;69.52;99576.70;109480;1253;60932;-26
2024/02/01 01:49:39;;;;;;;17.20;9.30;;;;;;;4.80;68.92;99574.42;109501;1255;60147;-27
2024/02/01 01:52:06;;;;;;;16.90;9.10;;;;;;;5.31;67.42;99567.30;109460;1251;71973;-27
2024/02/01 01:54:35;;;;;;;12.30;8.40;;;;;;;5.29;66.81;99557.23;109487;1251;74541;-26
2024/02/01 01:57:03;;;;;;;12.60;8.40;;;;;;;5.16;66.96;99552.52;109459;1251;72736;-27
2024/02/01 01:59:31;;;;;;;16.90;9.20;;;;;;;4.95;67.36;99548.78;109364;1253;59237;-26
2024/02/01 02:03:43;;;;;;;15.30;9.00;;;;;;;4.47;68.72;99541.80;103099;1292;600985;-25
2024/02/01 02:06:11;;;;;;;20.10;9.20;;;;;;;4.42;68.65;99535.36;104827;1267;61140;-27
2024/02/01 02:08:39;;;;;;;16.50;9.90;;;;;;;4.31;68.96;99540.17;104833;1269;61222;-28
2024/02/01 02:18:44;;;;;;;15.80;9.20;;;;;;;5.28;67.14;99526.80;102749;1293;600167;-26
2024/02/01 02:21:15;;;;;;;13.30;8.50;;;;;;;5.10;67.12;99524.61;104898;1266;61228;-27
2024/02/01 02:31:19;;;;;;;14.90;8.00;;;;;;;4.06;70.39;99503.73;102707;1292;599320;-25
2024/02/01 02:33:47;;;;;;;18.10;10.60;;;;;;;3.85;70.58;99499.19;104775;1272;61152;-25
2024/02/01 02:43:56;;;;;;;15.30;8.60;;;;;;;4.74;68.17;99485.96;102945;1290;599385;-25
2024/02/01 02:46:25;;;;;;;17.50;9.90;;;;;;;4.40;68.74;99491.42;105178;1266;61148;-25
2024/02/01 02:48:53;;;;;;;18.30;10.50;;;;;;;4.12;69.03;99482.62;105147;1263;61145;-25
2024/02/01 02:59:01;;;;;;;14.50;8.00;;;;;;;3.09;72.89;99456.73;102931;1292;599385;-25
2024/02/01 03:09:09;;;;;;;20.80;10.40;;;;;;;3.66;71.71;99454.17;102874;1292;600123;-25
2024/02/01 03:11:38;;;;;;;15.50;9.40;;;;;;;3.39;72.05;99449.27;104858;1271;61269;-25
2024/02/01 03:14:11;;;;;;;19.60;11.90;;;;;;;3.18;72.78;99451.20;104853;1267;61238;-28
2024/02/01 03:16:39;;;;;;;24.70;12.30;;;;;;;3.02;72.57;99450.69;104849;1265;71001;-28
2024/02/01 03:26:47;;;;;;;12.60;7.50;;;;;;;3.88;71.23;99434.63;102704;1289;599466;-28
2024/02/01 03:29:16;;;;;;;16.90;9.70;;;;;;;3.61;71.73;99436.94;104841;1266;61197;-28
2024/02/01 03:31:44;;;;;;;21.40;10.30;;;;;;;3.27;72.92;99427.82;105533;1262;61224;-28
2024/02/01 03:41:52;;;;;;;20.70;11.10;;;;;;;3.39;74.00;99432.06;102745;1289;600217;-25
2024/02/01 03:44:21;;;;;;;17.50;10.60;;;;;;;3.70;72.57;99432.55;104744;1267;61088;-25
2024/02/01 03:46:51;;;;;;;21.80;12.00;;;;;;;3.59;72.46;99430.98;104797;1265;61105;-25
2024/02/01 03:56:23;;;;;;;17.80;9.00;;;;;;;2.69;75.47;99427.44;102756;1290;600213;-25
2024/02/01 04:06:27;;;;;;;19.00;10.00;;;;;;;3.66;72.96;99414.37;102758;1295;599343;-25
2024/02/01 04:16:40;;;;;;;25.80;14.30;;;;;;;2.94;74.34;99394.60;102730;1289;600265;-26
2024/02/01 04:19:08;;;;;;;17.90;10.50;;;;;;;2.75;75.02;99392.70;105038;1266;61195;-25
2024/02/01 04:29:13;;;;;;;24.50;12.30;;;;;;;3.87;72.04;99386.05;102757;1294;599394;-25
2024/02/01 04:31:41;;;;;;;21.00;11.70;;;;;;;3.58;72.47;99381.92;105669;1260;61050;-25
2024/02/01 04:34:09;;;;;;;20.50;11.70;;;;;;;3.30;73.48;99382.70;105619;1261;61101;-27
2024/02/01 04:36:37;;;;;;;23.50;13.10;;;;;;;3.04;74.11;99392.45;105642;1260;72210;-28
2024/02/01 04:39:08;;;;;;;20.80;11.70;;;;;;;2.79;75.00;99389.27;105559;1263;74274;-28
2024/02/01 04:41:38;;;;;;;19.20;10.90;;;;;;;2.58;75.35;99388.11;105288;1259;71468;-28
2024/02/01 04:44:07;;;;;;;20.30;10.90;;;;;;;3.15;74.51;99384.58;105534;1257;61288;-28
2024/02/01 04:54:11;;;;;;;20.80;12.00;;;;;;;3.21;73.53;99373.50;102709;1293;600190;-26
2024/02/01 05:04:18;;;;;;;20.40;10.40;;;;;;;3.35;74.87;99342.33;102740;1292;600127;-25
2024/02/01 05:06:47;;;;;;;19.10;10.30;;;;;;;3.64;73.42;99340.98;105154;1264;61118;-26
2024/02/01 05:09:24;;;;;;;20.90;12.30;;;;;;;3.53;73.40;99335.49;104844;1266;61054;-27
2024/02/01 05:11:55;;;;;;;20.30;11.20;;;;;;;3.26;74.34;99336.20;104860;1270;70972;-28
2024/02/01 05:14:23;;;;;;;21.30;12.10;;;;;;;2.78;77.08;99331.17;104627;1266;73125;-28
2024/02/01 05:16:51;;;;;;;19.50;10.10;;;;;;;2.58;78.13;99333.97;104726;1267;193120;-29
2024/02/01 05:25:43;;;;;;;19.60;9.80;;;;;;;3.68;73.99;99321.05;102677;1291;600779;-26
2024/02/01 05:28:11;;;;;;;18.30;11.30;;;;;;;3.46;74.68;99322.59;104879;1266;61167;-27
2024/02/01 05:30:45;;;;;;;20.40;11.30;;;;;;;3.37;74.83;99318.02;104882;1269;61254;-27
2024/02/01 05:40:58;;;;;;;17.00;9.80;;;;;;;4.04;74.02;99293.52;102742;1294;600123;-25
2024/02/01 05:43:25;;;;;;;22.30;12.20;;;;;;;3.87;74.04;99290.92;104829;1266;61120;-27
2024/02/01 05:45:56;;;;;;;18.40;11.50;;;;;;;3.82;73.88;99292.02;104874;1266;61101;-28
2024/02/01 05:48:24;;;;;;;23.90;12.00;;;;;;;3.68;73.80;99292.70;105017;1265;71822;-28
2024/02/01 05:58:27;;;;;;;14.20;8.90;;;;;;;4.15;73.41;99292.45;102644;1294;599536;-25
2024/02/01 06:00:57;;;;;;;13.20;8.60;;;;;;;4.28;72.82;99290.05;105066;1266;61073;-25
2024/02/01 06:03:25;;;;;;;23.80;12.00;;;;;;;3.97;73.17;99290.07;104899;1266;61119;-25
2024/02/01 06:05:53;;;;;;;24.50;11.40;;;;;;;3.76;73.86;99285.09;104890;1266;70950;-25
2024/02/01 06:08:21;;;;;;;19.00;11.30;;;;;;;3.56;74.70;99276.98;104828;1266;74394;-27
2024/02/01 06:10:49;;;;;;;23.20;12.80;;;;;;;3.34;75.59;99272.38;104842;1267;72717;-28
2024/02/01 06:13:17;;;;;;;17.00;10.10;;;;;;;3.21;76.69;99272.80;105050;1263;154442;-28
2024/02/01 06:15:45;;;;;;;22.40;12.00;;;;;;;3.90;74.74;99266.20;105213;1263;61124;-25
2024/02/01 06:18:13;;;;;;;16.90;10.40;;;;;;;4.30;73.24;99263.34;105267;1260;72221;-27
2024/02/01 06:28:23;;;;;;;19.70;12.50;;;;;;;3.53;74.86;99250.00;102708;1292;598970;-27
2024/02/01 06:30:51;;;;;;;15.70;9.10;;;;;;;3.21;76.13;99250.30;104654;1269;62027;-28
2024/02/01 06:33:28;;;;;;;23.50;11.60;;;;;;;3.80;74.60;99251.91;105061;1269;62759;-28
2024/02/01 06:35:56;;;;;;;25.00;10.50;;;;;;;4.28;73.07;99249.99;104829;1270;74657;-25
2024/02/01 06:38:45;;;;;;;18.30;10.50;;;;;;;4.13;73.14;99246.65;105184;1264;76269;-25
2024/02/01 06:49:11;;;;;;;19.20;10.60;;;;;;;3.91;73.72;99245.52;102744;1294;599122;-28
2024/02/01 06:51:40;;;;;;;15.40;8.10;;;;;;;4.00;74.13;99256.75;105087;1269;61075;-25
2024/02/01 06:54:26;;;;;;;16.50;8.00;;;;;;;4.68;72.25;99258.91;104916;1263;61153;-25
2024/02/01 06:57:03;;;;;;;22.80;11.80;;;;;;;4.86;70.85;99255.19;105132;1267;72217;-27
2024/02/01 06:59:33;;;;;;;23.10;12.90;;;;;;;4.72;71.08;99250.66;104859;1264;74477;-28
2024/02/01 07:02:24;;;;;;;18.50;9.90;;;;;;;4.52;71.65;99248.59;105031;1271;153200;-28
2024/02/01 07:04:53;;;;;;;20.50;10.90;;;;;;;4.30;72.13;99242.86;105191;1266;61244;-28
2024/02/01 07:07:29;;;;;;;19.70;11.60;;;;;;;4.12;72.72;99237.27;104982;1261;61095;-31
2024/02/01 07:09:58;;;;;;;16.10;9.70;;;;;;;4.03;73.35;99236.02;104892;1266;71990;-28
2024/02/01 07:12:42;;;;;;;15.70;8.60;;;;;;;4.60;72.57;99230.83;105038;1261;74311;-28
2024/02/01 07:20:50;;;;;;;20.00;10.30;;;;;;;4.70;71.10;99218.20;105199;1261;61132;-28
2024/02/01 08:00:27;;;;;;;15.80;9.00;;;;;;;4.73;71.28;99164.92;104879;1266;61170;-28
2024/02/01 08:10:31;;;;;;;20.10;10.70;;;;;;;5.32;70.07;99159.71;102742;1290;600228;-27
2024/02/01 08:13:05;;;;;;;21.20;10.90;;;;;;;5.47;69.43;99174.15;104803;1271;61189;-27
2024/02/01 08:15:41;;;;;;;16.80;9.60;;;;;;;5.40;69.54;99167.00;104879;1266;61163;-28
2024/02/01 08:18:09;;;;;;;15.00;10.10;;;;;;;5.28;69.71;99163.57;104818;1266;72229;-28
2024/02/01 08:28:32;;;;;;;16.20;8.70;;;;;;;5.62;69.45;99146.60;102670;1292;600105;-27
2024/02/01 08:31:02;;;;;;;15.40;9.30;;;;;;;5.54;68.84;99142.05;104892;1266;61633;-27
2024/02/01 08:33:31;;;;;;;14.60;8.00;;;;;;;5.27;69.76;99138.30;104799;1269;61491;-26
2024/02/01 08:36:00;;;;;;;13.70;8.50;;;;;;;4.92;70.97;99130.34;104769;1271;75099;-27
2024/02/01 08:38:32;;;;;;;21.40;10.80;;;;;;;4.64;72.30;99128.79;104790;1269;75481;-26
2024/02/01 08:41:03;;;;;;;16.30;8.10;;;;;;;4.56;72.73;99129.05;104668;1271;176425;-27
2024/02/01 08:43:33;;;;;;;11.30;7.30;;;;;;;5.23;71.06;99127.32;104796;1266;62217;-27
2024/02/01 08:46:01;;;;;;;17.00;9.90;;;;;;;5.73;69.39;99123.04;104850;1271;62817;-27
2024/02/01 08:48:30;;;;;;;15.90;9.30;;;;;;;5.83;68.27;99119.70;104716;1265;73032;-26
2024/02/01 08:50:58;;;;;;;18.50;10.10;;;;;;;5.66;68.57;99120.39;104810;1270;75705;-26
2024/02/01 08:53:26;;;;;;;14.30;8.80;;;;;;;5.62;68.50;99122.36;104888;1266;73898;-26
2024/02/01 08:55:54;;;;;;;18.40;10.80;;;;;;;5.47;69.10;99122.00;104790;1269;61198;-27
2024/02/01 08:58:22;;;;;;;14.80;8.40;;;;;;;5.34;69.35;99116.61;104840;1266;61753;-27
2024/02/01 09:00:50;;;;;;;18.50;9.30;;;;;;;5.46;69.87;99110.39;104855;1270;74884;-26
2024/02/01 09:03:29;;;;;;;16.70;8.40;;;;;;;5.91;68.39;99100.61;104833;1271;73510;-26
2024/02/01 09:06:08;;;;;;;11.90;7.20;;;;;;;5.96;67.68;99100.13;104732;1266;71449;-26
2024/02/01 09:08:40;;;;;;;12.60;8.20;;;;;;;5.96;67.44;99100.65;104808;1266;62939;-26
2024/02/01 09:11:12;;;;;;;13.70;7.70;;;;;;;5.77;67.64;99095.56;105015;1263;62827;-26
2024/02/01 09:13:43;;;;;;;11.20;6.70;;;;;;;5.64;67.88;99091.05;105044;1267;75816;-26
2024/02/01 09:16:12;;;;;;;15.60;8.80;;;;;;;5.60;67.53;99083.35;105081;1262;77052;-27
2024/02/01 09:18:40;;;;;;;14.10;8.50;;;;;;;5.48;67.77;99079.77;105073;1263;73488;-27
2024/02/01 09:21:10;;;;;;;14.70;7.80;;;;;;;5.68;67.43;99070.81;105219;1262;62066;-26
2024/02/01 09:23:38;;;;;;;13.80;7.40;;;;;;;6.21;65.76;99068.13;105050;1267;62554;-27
2024/02/01 09:26:08;;;;;;;14.50;7.30;;;;;;;6.37;64.83;99063.67;105187;1268;75823;-27
2024/02/01 09:28:40;;;;;;;11.20;6.70;;;;;;;6.32;64.80;99058.30;104971;1269;76979;-27
2024/02/01 09:31:18;;;;;;;10.60;6.60;;;;;;;6.11;65.09;99052.88;105528;1257;72664;-27
2024/02/01 09:33:48;;;;;;;15.90;7.50;;;;;;;5.89;66.11;99053.02;105172;1258;61736;-27
2024/02/01 09:36:16;;;;;;;10.80;6.90;;;;;;;5.84;66.39;99055.02;105228;1257;61949;-27
2024/02/01 09:38:45;;;;;;;13.10;8.70;;;;;;;5.80;66.22;99047.17;105408;1262;75694;-27
2024/02/01 09:41:16;;;;;;;10.20;6.40;;;;;;;5.73;66.76;99047.80;105161;1260;76191;-27
2024/02/01 09:43:50;;;;;;;6.60;5.00;;;;;;;6.16;65.93;99043.43;105295;1258;74153;-27
2024/02/01 09:46:18;;;;;;;6.40;5.20;;;;;;;6.56;63.96;99037.09;104977;1259;61767;-27
2024/02/01 09:48:47;;;;;;;8.80;5.60;;;;;;;6.59;63.04;99032.81;105009;1265;62664;-27
2024/02/01 09:51:18;;;;;;;12.60;7.60;;;;;;;6.29;62.92;99021.23;105353;1259;74290;-27
2024/02/01 09:53:48;;;;;;;15.80;7.70;;;;;;;6.11;63.09;99017.72;105236;1259;77247;-27
2024/02/01 09:56:16;;;;;;;13.60;8.20;;;;;;;6.08;63.64;99016.69;105132;1258;75497;-27
2024/02/01 09:58:44;;;;;;;8.60;5.40;;;;;;;5.88;63.43;99004.99;105254;1259;62022;-27
2024/02/01 10:01:12;;;;;;;12.10;6.30;;;;;;;5.79;63.35;99001.55;105400;1262;61101;-27
2024/02/01 10:03:42;;;;;;;10.40;6.10;;;;;;;5.58;63.84;98993.37;105222;1258;72066;-27
2024/02/01 10:06:11;;;;;;;11.60;6.30;;;;;;;5.47;63.81;98988.55;105146;1265;76124;-27
2024/02/01 10:08:40;;;;;;;9.40;5.70;;;;;;;5.37;63.41;98979.15;105482;1262;75381;-27
2024/02/01 10:11:08;;;;;;;12.90;7.50;;;;;;;5.26;63.60;98976.42;105294;1260;61162;-27
2024/02/01 10:13:36;;;;;;;8.20;5.90;;;;;;;5.10;64.34;98974.10;105174;1259;61985;-27
2024/02/01 10:16:16;;;;;;;8.60;6.00;;;;;;;5.60;62.93;98985.00;105218;1257;75764;-27
2024/02/01 10:18:52;;;;;;;11.30;6.50;;;;;;;6.16;61.31;98990.55;105001;1258;76092;-27
2024/02/01 10:21:23;;;;;;;13.10;6.70;;;;;;;6.18;60.65;98986.94;105108;1262;74400;-27
2024/02/01 10:24:06;;;;;;;11.40;6.30;;;;;;;6.02;61.02;98982.23;105168;1256;62926;-27
2024/02/01 10:26:36;;;;;;;9.80;5.80;;;;;;;5.85;61.43;98983.45;105355;1262;61539;-27
2024/02/01 10:29:04;;;;;;;12.40;7.00;;;;;;;5.84;61.83;98977.52;105460;1262;73835;-27
2024/02/01 10:31:32;;;;;;;8.60;5.40;;;;;;;5.78;61.75;98977.18;105421;1259;75494;-28
2024/02/01 10:34:07;;;;;;;10.00;6.10;;;;;;;5.56;61.78;98958.77;105255;1259;74559;-27
2024/02/01 10:36:40;;;;;;;11.90;6.40;;;;;;;5.40;62.52;98961.08;105134;1259;62044;-27
2024/02/01 10:39:18;;;;;;;11.80;7.50;;;;;;;5.38;62.82;98968.25;105231;1265;61189;-27
2024/02/01 10:41:54;;;;;;;14.20;8.60;;;;;;;5.51;62.44;98963.17;105246;1265;75536;-27
2024/02/01 10:44:32;;;;;;;11.70;7.00;;;;;;;5.45;62.58;98957.36;105294;1260;76617;-27
2024/02/01 10:47:03;;;;;;;12.00;6.00;;;;;;;5.51;62.47;98952.52;105272;1259;74209;-27
2024/02/01 10:49:31;;;;;;;8.10;5.50;;;;;;;5.74;62.16;98953.12;105226;1259;63771;-27
2024/02/01 10:51:59;;;;;;;10.30;6.40;;;;;;;6.39;60.28;98948.34;105237;1259;61838;-26
2024/02/01 10:54:27;;;;;;;11.50;7.10;;;;;;;6.54;59.15;98940.81;105152;1265;75847;-28
2024/02/01 10:57:04;;;;;;;11.70;6.70;;;;;;;6.61;58.98;98939.17;105460;1259;77201;-27
2024/02/01 10:59:33;;;;;;;9.20;5.80;;;;;;;6.52;59.17;98936.17;105118;1264;74530;-27
2024/02/01 11:02:02;;;;;;;12.00;6.70;;;;;;;6.32;59.38;98927.95;105122;1262;62134;-27
2024/02/01 11:04:37;;;;;;;12.30;7.30;;;;;;;6.24;59.70;98926.56;105141;1258;61877;-27
2024/02/01 11:07:06;;;;;;;11.90;6.60;;;;;;;6.12;60.16;98919.42;105193;1264;75738;-27
2024/02/01 11:09:37;;;;;;;10.80;6.50;;;;;;;6.22;60.29;98914.95;105115;1259;77205;-27
2024/02/01 11:12:13;;;;;;;10.50;6.90;;;;;;;6.21;59.66;98904.86;104909;1267;72610;-27
2024/02/01 11:14:42;;;;;;;7.90;5.50;;;;;;;6.17;59.85;98897.56;105203;1265;61172;-27
2024/02/01 11:17:20;;;;;;;12.10;7.20;;;;;;;6.16;59.53;98888.62;105401;1262;62837;-27
2024/02/01 11:19:49;;;;;;;9.70;5.20;;;;;;;6.17;59.37;98883.79;105146;1259;74138;-27
2024/02/01 11:22:18;;;;;;;10.20;5.80;;;;;;;6.06;59.36;98884.13;105121;1263;75944;-27
2024/02/01 11:24:46;;;;;;;9.00;6.40;;;;;;;6.13;59.42;98881.98;105382;1257;74419;-27
2024/02/01 11:27:18;;;;;;;9.00;5.80;;;;;;;6.01;59.62;98878.42;105138;1259;62066;-27
2024/02/01 11:29:50;;;;;;;7.80;4.70;;;;;;;5.98;59.08;98862.55;105120;1258;61039;-27
2024/02/01 11:32:24;;;;;;;9.40;6.00;;;;;;;5.94;59.10;98860.92;105031;1260;74422;-27
2024/02/01 11:34:59;;;;;;;7.90;5.20;;;;;;;5.94;59.39;98860.21;105152;1259;77218;-27
2024/02/01 11:37:27;;;;;;;11.20;5.60;;;;;;;5.94;59.37;98858.70;105213;1262;76311;-27
2024/02/01 11:39:56;;;;;;;9.60;5.80;;;;;;;5.98;59.42;98847.55;105210;1259;62236;-27
2024/02/01 11:42:25;;;;;;;10.40;6.00;;;;;;;5.88;59.50;98841.87;105089;1261;62851;-27
2024/02/01 11:45:00;;;;;;;8.40;5.40;;;;;;;5.89;59.25;98826.23;105145;1259;75925;-27
2024/02/01 11:47:34;;;;;;;7.70;5.50;;;;;;;5.93;58.93;98822.06;105097;1262;73458;-27
2024/02/01 11:50:03;;;;;;;7.60;4.90;;;;;;;5.99;58.76;98822.69;105125;1260;74511;-27
2024/02/01 11:52:58;;;;;;;4.80;3.80;;;;;;;5.93;58.64;98813.63;105187;1265;61082;-27
2024/02/01 11:55:27;;;;;;;8.50;3.80;;;;;;;5.95;58.10;98814.52;105255;1259;61648;-27
2024/02/01 11:57:59;;;;;;;6.00;4.00;;;;;;;5.89;58.08;98811.81;105270;1264;75748;-27
2024/02/01 12:00:27;;;;;;;9.60;4.30;;;;;;;5.89;58.33;98808.70;105276;1260;75156;-27
2024/02/01 12:03:15;;;;;;;7.60;4.10;;;;;;;5.86;57.45;98812.83;105345;1259;74365;-28
2024/02/01 12:05:44;;;;;;;9.90;5.40;;;;;;;5.96;58.14;98819.97;105125;1260;61187;-27
2024/02/01 12:08:12;;;;;;;8.90;4.70;;;;;;;5.90;58.26;98812.06;105509;1262;62788;-27
2024/02/01 12:10:45;;;;;;;7.30;4.90;;;;;;;5.93;57.69;98811.71;105608;1261;75815;-27
2024/02/01 12:13:15;;;;;;;8.80;5.40;;;;;;;6.00;58.14;98812.27;105355;1264;76897;-27
2024/02/01 12:15:45;;;;;;;7.30;5.00;;;;;;;5.97;57.97;98815.74;105296;1263;73934;-27
2024/02/01 12:18:13;;;;;;;6.40;4.20;;;;;;;5.94;57.60;98810.59;105158;1260;62256;-27
2024/02/01 12:20:42;;;;;;;5.90;4.50;;;;;;;5.83;57.31;98819.75;105157;1264;61712;-27
2024/02/01 12:23:12;;;;;;;10.20;5.20;;;;;;;5.80;57.38;98815.48;105446;1258;75795;-27
2024/02/01 12:25:44;;;;;;;6.50;4.20;;;;;;;5.72;57.32;98818.77;105260;1259;77141;-27
2024/02/01 12:28:13;;;;;;;6.40;4.10;;;;;;;5.46;57.37;98808.88;105113;1259;75490;-28
2024/02/01 12:30:44;;;;;;;8.10;5.40;;;;;;;5.40;57.43;98813.70;105139;1263;61221;-27
2024/02/01 12:33:13;;;;;;;8.10;4.70;;;;;;;5.42;57.77;98809.48;105101;1260;62755;-27
2024/02/01 12:35:43;;;;;;;5.30;4.20;;;;;;;5.29;57.89;98797.40;105123;1263;73829;-27
2024/02/01 12:38:14;;;;;;;7.70;4.80;;;;;;;5.27;58.06;98794.41;105219;1259;76225;-27
2024/02/01 12:40:44;;;;;;;7.50;4.30;;;;;;;5.20;58.22;98803.61;105098;1257;75410;-28
2024/02/01 12:43:13;;;;;;;6.00;3.50;;;;;;;5.21;58.27;98805.13;105071;1259;61162;-27
2024/02/01 12:45:46;;;;;;;5.20;3.60;;;;;;;5.13;58.90;98811.97;105074;1259;61056;-27
2024/02/01 12:48:16;;;;;;;7.10;4.60;;;;;;;5.06;59.01;98799.48;105526;1257;74995;-27
2024/02/01 12:50:45;;;;;;;8.00;4.60;;;;;;;4.93;59.35;98801.33;105443;1254;75658;-27
2024/02/01 12:53:13;;;;;;;7.40;4.70;;;;;;;4.74;59.25;98788.23;105480;1259;74476;-28
2024/02/01 12:55:41;;;;;;;6.80;4.30;;;;;;;4.76;59.19;98781.05;105540;1256;61117;-27
2024/02/01 12:58:09;;;;;;;7.00;4.30;;;;;;;4.85;59.41;98793.38;105266;1259;62657;-27
2024/02/01 13:00:37;;;;;;;6.20;4.10;;;;;;;4.82;59.38;98777.38;105491;1259;77080;-27
2024/02/01 13:03:05;;;;;;;6.10;4.60;;;;;;;4.76;59.71;98785.33;105451;1256;77142;-27
2024/02/01 13:05:33;;;;;;;7.90;4.80;;;;;;;4.82;59.94;98794.11;105301;1256;75393;-27
2024/02/01 13:08:04;;;;;;;4.90;3.50;;;;;;;4.86;59.95;98788.50;105272;1263;61842;-27
2024/02/01 13:10:38;;;;;;;6.10;3.80;;;;;;;4.81;58.96;98769.19;105353;1256;61143;-27
2024/02/01 13:13:07;;;;;;;4.20;3.30;;;;;;;4.86;58.41;98779.59;105162;1256;75596;-27
2024/02/01 13:15:35;;;;;;;5.70;3.30;;;;;;;4.86;58.78;98778.91;105404;1255;77131;-27
2024/02/01 13:18:11;;;;;;;4.90;3.50;;;;;;;4.88;58.51;98774.25;105234;1256;75455;-27
2024/02/01 13:20:44;;;;;;;5.70;4.30;;;;;;;4.89;58.31;98771.84;105230;1256;61146;-27
2024/02/01 13:23:12;;;;;;;6.50;3.90;;;;;;;4.91;58.72;98767.55;105179;1261;61861;-27
2024/02/01 13:25:43;;;;;;;13.20;4.10;;;;;;;4.87;58.86;98760.57;105286;1260;76563;-27
2024/02/01 13:28:11;;;;;;;6.10;3.60;;;;;;;4.93;58.29;98755.23;105271;1256;76980;-27
2024/02/01 13:30:39;;;;;;;6.50;3.50;;;;;;;4.97;58.38;98758.61;105089;1261;75268;-27
2024/02/01 13:33:07;;;;;;;5.90;3.80;;;;;;;5.00;58.06;98757.03;105257;1256;61132;-27
2024/02/01 13:35:38;;;;;;;5.00;2.70;;;;;;;4.97;58.15;98753.96;105295;1256;62553;-27
2024/02/01 13:38:09;;;;;;;7.50;4.40;;;;;;;4.97;58.10;98756.69;105134;1261;73321;-27
2024/02/01 13:40:38;;;;;;;4.40;3.00;;;;;;;5.01;58.19;98752.81;105409;1260;77117;-27
2024/02/01 13:43:06;;;;;;;5.50;3.80;;;;;;;4.84;58.62;98754.73;105534;1256;75505;-27
2024/02/01 13:45:34;;;;;;;5.60;3.40;;;;;;;4.91;58.49;98757.41;105521;1262;61613;-27
2024/02/01 13:48:03;;;;;;;9.70;3.80;;;;;;;4.90;58.74;98759.88;105638;1257;61796;-27
2024/02/01 13:50:31;;;;;;;5.80;3.80;;;;;;;4.96;58.52;98757.27;105628;1257;76702;-27
2024/02/01 13:53:00;;;;;;;6.00;4.10;;;;;;;4.91;58.34;98758.30;105564;1259;77205;-27
2024/02/01 13:55:29;;;;;;;4.40;3.70;;;;;;;4.89;58.39;98760.08;105287;1259;75181;-27
2024/02/01 13:57:57;;;;;;;6.30;4.00;;;;;;;4.87;58.56;98760.23;105223;1256;62080;-27
2024/02/01 14:00:24;;;;;;;8.60;4.70;;;;;;;4.88;58.68;98761.38;105217;1254;61850;-27
2024/02/01 14:02:53;;;;;;;6.60;4.70;;;;;;;4.86;58.82;98753.94;105298;1256;74902;-27
2024/02/01 14:05:21;;;;;;;6.40;3.80;;;;;;;4.95;58.73;98759.42;105158;1260;77110;-27
2024/02/01 14:07:54;;;;;;;6.30;3.90;;;;;;;4.87;58.92;98751.63;105352;1259;74013;-27
2024/02/01 14:10:22;;;;;;;5.00;3.90;;;;;;;4.87;58.71;98743.58;105467;1259;62008;-28
2024/02/01 14:12:50;;;;;;;6.70;4.50;;;;;;;4.87;58.39;98743.90;105599;1259;62763;-27
2024/02/01 14:15:18;;;;;;;6.40;4.10;;;;;;;4.90;58.72;98734.58;105491;1259;76469;-27
2024/02/01 14:17:46;;;;;;;7.30;3.90;;;;;;;4.93;58.79;98738.19;105341;1256;76215;-27
2024/02/01 14:20:15;;;;;;;4.80;3.90;;;;;;;4.95;58.68;98731.02;105455;1259;75285;-27
2024/02/01 14:22:43;;;;;;;6.00;4.40;;;;;;;4.89;58.80;98735.48;105326;1260;61220;-27
2024/02/01 14:25:12;;;;;;;7.70;4.10;;;;;;;4.78;59.18;98732.94;105305;1262;62868;-27
2024/02/01 14:27:40;;;;;;;4.90;3.80;;;;;;;4.86;59.09;98732.98;105489;1257;76305;-27
2024/02/01 14:30:16;;;;;;;9.20;4.10;;;;;;;4.78;59.27;98728.12;105244;1261;75167;-27
2024/02/01 14:32:45;;;;;;;8.30;4.20;;;;;;;4.74;59.74;98728.19;105253;1256;75449;-27
2024/02/01 14:35:14;;;;;;;5.40;3.50;;;;;;;4.75;59.78;98731.79;105481;1259;61093;-27
2024/02/01 14:37:43;;;;;;;4.40;3.30;;;;;;;5.23;58.74;98736.50;105309;1255;61239;-27
2024/02/01 14:40:12;;;;;;;6.90;3.40;;;;;;;5.67;57.42;98732.27;105491;1261;76581;-27
2024/02/01 14:42:42;;;;;;;5.70;3.90;;;;;;;5.67;57.27;98732.61;105456;1263;76776;-27
2024/02/01 14:45:11;;;;;;;5.60;4.10;;;;;;;5.63;57.45;98730.31;105584;1256;75474;-27
2024/02/01 14:47:40;;;;;;;8.80;4.20;;;;;;;5.47;57.97;98728.76;105340;1257;62054;-27
2024/02/01 14:50:09;;;;;;;14.20;4.90;;;;;;;5.31;58.71;98728.05;105448;1260;61129;-27
2024/02/01 14:52:37;;;;;;;5.00;3.80;;;;;;;5.08;59.71;98722.13;105463;1259;75552;-27
2024/02/01 14:55:09;;;;;;;7.20;4.90;;;;;;;5.10;59.63;98713.91;105090;1256;75784;-27